sensor_id;sensor_type;location;lat;lon;timestamp;P1;durP1;ratioP1;P2;durP2;ratioP2
65463;SDS011;52063;45.110;9.870;2023-12-28T00:00:22;10.10;;;8.98;;
65463;SDS011;52063;45.110;9.870;2023-12-28T00:02:48;12.77;;;9.33;;
65463;SDS011;52063;45.110;9.870;2023-12-28T00:05:13;10.97;;;9.50;;
65463;SDS011;52063;45.110;9.870;2023-12-28T00:07:38;10.90;;;9.17;;
65463;SDS011;52063;45.110;9.870;2023-12-28T00:10:04;14.80;;;9.45;;
65463;SDS011;52063;45.110;9.870;2023-12-28T00:12:30;13.40;;;9.57;;
65463;SDS011;52063;45.110;9.870;2023-12-28T00:14:55;10.73;;;9.50;;
65463;SDS011;52063;45.110;9.870;2023-12-28T00:17:21;11.30;;;9.52;;
65463;SDS011;52063;45.110;9.870;2023-12-28T00:19:46;10.13;;;9.07;;
65463;SDS011;52063;45.110;9.870;2023-12-28T00:22:12;12.67;;;9.43;;
65463;SDS011;52063;45.110;9.870;2023-12-28T00:24:37;11.75;;;9.98;;
65463;SDS011;52063;45.110;9.870;2023-12-28T00:27:03;10.63;;;9.43;;
65463;SDS011;52063;45.110;9.870;2023-12-28T00:29:28;11.57;;;9.27;;
65463;SDS011;52063;45.110;9.870;2023-12-28T00:31:54;14.15;;;9.57;;
65463;SDS011;52063;45.110;9.870;2023-12-28T00:34:20;10.57;;;9.47;;
65463;SDS011;52063;45.110;9.870;2023-12-28T00:36:45;10.63;;;9.18;;
65463;SDS011;52063;45.110;9.870;2023-12-28T00:39:11;12.27;;;9.80;;
65463;SDS011;52063;45.110;9.870;2023-12-28T00:41:36;14.20;;;9.83;;
65463;SDS011;52063;45.110;9.870;2023-12-28T00:44:01;13.90;;;10.43;;
65463;SDS011;52063;45.110;9.870;2023-12-28T00:46:27;12.03;;;9.20;;
65463;SDS011;52063;45.110;9.870;2023-12-28T00:48:53;10.52;;;9.43;;
65463;SDS011;52063;45.110;9.870;2023-12-28T00:51:19;13.17;;;10.03;;
65463;SDS011;52063;45.110;9.870;2023-12-28T00:53:47;13.57;;;9.63;;
65463;SDS011;52063;45.110;9.870;2023-12-28T00:56:12;13.10;;;10.00;;
65463;SDS011;52063;45.110;9.870;2023-12-28T00:58:39;10.23;;;9.05;;
65463;SDS011;52063;45.110;9.870;2023-12-28T01:01:05;12.67;;;9.40;;
65463;SDS011;52063;45.110;9.870;2023-12-28T01:03:31;10.68;;;9.57;;
65463;SDS011;52063;45.110;9.870;2023-12-28T01:05:57;11.90;;;9.37;;
65463;SDS011;52063;45.110;9.870;2023-12-28T01:08:22;12.48;;;9.18;;
65463;SDS011;52063;45.110;9.870;2023-12-28T01:10:48;11.03;;;9.50;;
65463;SDS011;52063;45.110;9.870;2023-12-28T01:13:13;10.30;;;9.17;;
65463;SDS011;52063;45.110;9.870;2023-12-28T01:15:39;12.20;;;9.50;;
65463;SDS011;52063;45.110;9.870;2023-12-28T01:18:05;13.00;;;9.70;;
65463;SDS011;52063;45.110;9.870;2023-12-28T01:20:30;11.65;;;9.63;;
65463;SDS011;52063;45.110;9.870;2023-12-28T01:22:55;10.60;;;8.87;;
65463;SDS011;52063;45.110;9.870;2023-12-28T01:25:21;10.43;;;9.10;;
65463;SDS011;52063;45.110;9.870;2023-12-28T01:27:46;11.10;;;8.93;;
65463;SDS011;52063;45.110;9.870;2023-12-28T01:30:12;12.70;;;9.18;;
65463;SDS011;52063;45.110;9.870;2023-12-28T01:32:37;12.67;;;9.50;;
65463;SDS011;52063;45.110;9.870;2023-12-28T01:35:03;10.20;;;8.80;;
65463;SDS011;52063;45.110;9.870;2023-12-28T01:37:29;10.93;;;9.40;;
65463;SDS011;52063;45.110;9.870;2023-12-28T01:39:57;10.02;;;8.85;;
65463;SDS011;52063;45.110;9.870;2023-12-28T01:42:22;11.03;;;8.80;;
65463;SDS011;52063;45.110;9.870;2023-12-28T01:44:48;11.70;;;9.37;;
65463;SDS011;52063;45.110;9.870;2023-12-28T01:47:13;10.63;;;9.18;;
65463;SDS011;52063;45.110;9.870;2023-12-28T01:49:39;11.90;;;9.00;;
65463;SDS011;52063;45.110;9.870;2023-12-28T01:52:04;12.25;;;9.15;;
65463;SDS011;52063;45.110;9.870;2023-12-28T01:54:31;10.83;;;8.93;;
65463;SDS011;52063;45.110;9.870;2023-12-28T01:56:57;11.52;;;9.65;;
65463;SDS011;52063;45.110;9.870;2023-12-28T01:59:23;11.73;;;8.70;;
65463;SDS011;52063;45.110;9.870;2023-12-28T02:01:48;10.50;;;9.23;;
65463;SDS011;52063;45.110;9.870;2023-12-28T02:04:14;10.90;;;8.97;;
65463;SDS011;52063;45.110;9.870;2023-12-28T02:06:39;11.80;;;9.10;;
65463;SDS011;52063;45.110;9.870;2023-12-28T02:09:05;12.30;;;8.70;;
65463;SDS011;52063;45.110;9.870;2023-12-28T02:11:30;10.80;;;9.13;;
65463;SDS011;52063;45.110;9.870;2023-12-28T02:13:56;10.40;;;9.20;;
65463;SDS011;52063;45.110;9.870;2023-12-28T02:16:25;10.77;;;9.20;;
65463;SDS011;52063;45.110;9.870;2023-12-28T02:18:51;10.48;;;9.40;;
65463;SDS011;52063;45.110;9.870;2023-12-28T02:21:19;11.52;;;8.95;;
65463;SDS011;52063;45.110;9.870;2023-12-28T02:23:48;10.60;;;8.18;;
65463;SDS011;52063;45.110;9.870;2023-12-28T02:26:17;15.53;;;8.57;;
65463;SDS011;52063;45.110;9.870;2023-12-28T02:28:46;10.23;;;8.82;;
65463;SDS011;52063;45.110;9.870;2023-12-28T02:31:25;11.40;;;9.13;;
65463;SDS011;52063;45.110;9.870;2023-12-28T02:33:59;10.38;;;8.52;;
65463;SDS011;52063;45.110;9.870;2023-12-28T02:36:34;10.70;;;8.95;;
65463;SDS011;52063;45.110;9.870;2023-12-28T02:39:02;9.80;;;8.40;;
65463;SDS011;52063;45.110;9.870;2023-12-28T02:41:30;11.93;;;9.23;;
65463;SDS011;52063;45.110;9.870;2023-12-28T02:43:56;12.63;;;9.02;;
65463;SDS011;52063;45.110;9.870;2023-12-28T02:46:21;10.80;;;8.73;;
65463;SDS011;52063;45.110;9.870;2023-12-28T02:48:48;10.40;;;8.10;;
65463;SDS011;52063;45.110;9.870;2023-12-28T02:51:14;11.13;;;8.50;;
65463;SDS011;52063;45.110;9.870;2023-12-28T02:53:41;9.60;;;8.53;;
65463;SDS011;52063;45.110;9.870;2023-12-28T02:56:07;9.98;;;8.40;;
65463;SDS011;52063;45.110;9.870;2023-12-28T02:58:33;9.50;;;8.02;;
65463;SDS011;52063;45.110;9.870;2023-12-28T03:00:58;10.80;;;8.33;;
65463;SDS011;52063;45.110;9.870;2023-12-28T03:03:24;15.43;;;8.87;;
65463;SDS011;52063;45.110;9.870;2023-12-28T03:05:49;10.32;;;8.55;;
65463;SDS011;52063;45.110;9.870;2023-12-28T03:08:16;10.67;;;8.63;;
65463;SDS011;52063;45.110;9.870;2023-12-28T03:10:42;10.98;;;8.43;;
65463;SDS011;52063;45.110;9.870;2023-12-28T03:13:07;10.47;;;8.20;;
65463;SDS011;52063;45.110;9.870;2023-12-28T03:15:33;11.77;;;8.57;;
65463;SDS011;52063;45.110;9.870;2023-12-28T03:17:59;9.50;;;8.43;;
65463;SDS011;52063;45.110;9.870;2023-12-28T03:20:24;14.45;;;8.75;;
65463;SDS011;52063;45.110;9.870;2023-12-28T03:22:50;10.37;;;8.57;;
65463;SDS011;52063;45.110;9.870;2023-12-28T03:25:15;8.83;;;7.93;;
65463;SDS011;52063;45.110;9.870;2023-12-28T03:27:40;12.57;;;8.40;;
65463;SDS011;52063;45.110;9.870;2023-12-28T03:30:06;9.82;;;8.30;;
65463;SDS011;52063;45.110;9.870;2023-12-28T03:32:32;10.63;;;8.23;;
65463;SDS011;52063;45.110;9.870;2023-12-28T03:34:57;10.30;;;8.18;;
65463;SDS011;52063;45.110;9.870;2023-12-28T03:37:23;11.30;;;8.43;;
65463;SDS011;52063;45.110;9.870;2023-12-28T03:39:49;9.27;;;7.82;;
65463;SDS011;52063;45.110;9.870;2023-12-28T03:42:14;11.00;;;8.30;;
65463;SDS011;52063;45.110;9.870;2023-12-28T03:44:40;10.98;;;8.57;;
65463;SDS011;52063;45.110;9.870;2023-12-28T03:47:06;8.70;;;7.80;;
65463;SDS011;52063;45.110;9.870;2023-12-28T03:49:31;9.57;;;8.40;;
65463;SDS011;52063;45.110;9.870;2023-12-28T03:51:57;9.77;;;8.77;;
65463;SDS011;52063;45.110;9.870;2023-12-28T03:54:22;8.90;;;8.00;;
65463;SDS011;52063;45.110;9.870;2023-12-28T03:56:48;9.70;;;8.70;;
65463;SDS011;52063;45.110;9.870;2023-12-28T03:59:13;12.23;;;8.60;;
65463;SDS011;52063;45.110;9.870;2023-12-28T04:01:42;9.98;;;8.23;;
65463;SDS011;52063;45.110;9.870;2023-12-28T04:04:08;10.13;;;8.67;;
65463;SDS011;52063;45.110;9.870;2023-12-28T04:06:34;9.73;;;8.23;;
65463;SDS011;52063;45.110;9.870;2023-12-28T04:08:59;9.63;;;8.63;;
65463;SDS011;52063;45.110;9.870;2023-12-28T04:11:25;9.67;;;8.00;;
65463;SDS011;52063;45.110;9.870;2023-12-28T04:13:50;9.40;;;7.83;;
65463;SDS011;52063;45.110;9.870;2023-12-28T04:16:16;9.07;;;8.10;;
65463;SDS011;52063;45.110;9.870;2023-12-28T04:18:42;9.38;;;8.20;;
65463;SDS011;52063;45.110;9.870;2023-12-28T04:21:08;9.67;;;8.30;;
65463;SDS011;52063;45.110;9.870;2023-12-28T04:23:35;9.23;;;8.23;;
65463;SDS011;52063;45.110;9.870;2023-12-28T04:26:01;9.57;;;7.70;;
65463;SDS011;52063;45.110;9.870;2023-12-28T04:28:27;11.75;;;8.38;;
65463;SDS011;52063;45.110;9.870;2023-12-28T04:30:52;9.03;;;8.13;;
65463;SDS011;52063;45.110;9.870;2023-12-28T04:33:18;8.93;;;8.03;;
65463;SDS011;52063;45.110;9.870;2023-12-28T04:35:44;9.15;;;8.25;;
65463;SDS011;52063;45.110;9.870;2023-12-28T04:38:10;8.80;;;7.90;;
65463;SDS011;52063;45.110;9.870;2023-12-28T04:40:35;10.87;;;8.00;;
65463;SDS011;52063;45.110;9.870;2023-12-28T04:43:01;9.53;;;8.20;;
65463;SDS011;52063;45.110;9.870;2023-12-28T04:45:27;9.85;;;8.35;;
65463;SDS011;52063;45.110;9.870;2023-12-28T04:47:53;10.23;;;8.40;;
65463;SDS011;52063;45.110;9.870;2023-12-28T04:50:18;8.67;;;7.77;;
65463;SDS011;52063;45.110;9.870;2023-12-28T04:52:44;9.17;;;7.80;;
65463;SDS011;52063;45.110;9.870;2023-12-28T04:55:09;8.83;;;7.90;;
65463;SDS011;52063;45.110;9.870;2023-12-28T04:57:35;8.55;;;7.65;;
65463;SDS011;52063;45.110;9.870;2023-12-28T05:00:00;9.43;;;7.60;;
65463;SDS011;52063;45.110;9.870;2023-12-28T05:02:26;10.27;;;7.93;;
65463;SDS011;52063;45.110;9.870;2023-12-28T05:04:52;10.25;;;7.90;;
65463;SDS011;52063;45.110;9.870;2023-12-28T05:07:18;9.48;;;8.02;;
65463;SDS011;52063;45.110;9.870;2023-12-28T05:09:44;9.23;;;8.20;;
65463;SDS011;52063;45.110;9.870;2023-12-28T05:12:10;10.32;;;7.60;;
65463;SDS011;52063;45.110;9.870;2023-12-28T05:14:36;9.27;;;8.20;;
65463;SDS011;52063;45.110;9.870;2023-12-28T05:17:01;8.97;;;7.50;;
65463;SDS011;52063;45.110;9.870;2023-12-28T05:19:27;9.30;;;7.87;;
65463;SDS011;52063;45.110;9.870;2023-12-28T05:21:52;8.47;;;7.67;;
65463;SDS011;52063;45.110;9.870;2023-12-28T05:24:18;8.75;;;7.55;;
65463;SDS011;52063;45.110;9.870;2023-12-28T05:26:43;8.53;;;7.20;;
65463;SDS011;52063;45.110;9.870;2023-12-28T05:29:08;9.93;;;8.27;;
65463;SDS011;52063;45.110;9.870;2023-12-28T05:31:34;9.23;;;7.60;;
65463;SDS011;52063;45.110;9.870;2023-12-28T05:33:59;10.03;;;8.60;;
65463;SDS011;52063;45.110;9.870;2023-12-28T05:36:25;9.77;;;8.40;;
65463;SDS011;52063;45.110;9.870;2023-12-28T05:38:50;10.50;;;8.40;;
65463;SDS011;52063;45.110;9.870;2023-12-28T05:41:16;9.90;;;8.48;;
65463;SDS011;52063;45.110;9.870;2023-12-28T05:43:41;8.83;;;7.57;;
65463;SDS011;52063;45.110;9.870;2023-12-28T05:46:07;9.80;;;8.10;;
65463;SDS011;52063;45.110;9.870;2023-12-28T05:48:32;9.57;;;8.05;;
65463;SDS011;52063;45.110;9.870;2023-12-28T05:50:58;8.53;;;7.67;;
65463;SDS011;52063;45.110;9.870;2023-12-28T05:53:26;11.27;;;8.23;;
65463;SDS011;52063;45.110;9.870;2023-12-28T05:55:53;9.90;;;8.20;;
65463;SDS011;52063;45.110;9.870;2023-12-28T05:58:18;10.45;;;8.05;;
65463;SDS011;52063;45.110;9.870;2023-12-28T06:00:44;11.63;;;7.80;;
65463;SDS011;52063;45.110;9.870;2023-12-28T06:03:11;10.23;;;8.00;;
65463;SDS011;52063;45.110;9.870;2023-12-28T06:05:37;8.73;;;7.83;;
65463;SDS011;52063;45.110;9.870;2023-12-28T06:08:02;8.48;;;7.47;;
65463;SDS011;52063;45.110;9.870;2023-12-28T06:10:28;8.73;;;7.70;;
65463;SDS011;52063;45.110;9.870;2023-12-28T06:12:53;9.27;;;8.00;;
65463;SDS011;52063;45.110;9.870;2023-12-28T06:15:19;9.63;;;7.97;;
65463;SDS011;52063;45.110;9.870;2023-12-28T06:17:44;9.50;;;8.13;;
65463;SDS011;52063;45.110;9.870;2023-12-28T06:20:10;9.93;;;7.70;;
65463;SDS011;52063;45.110;9.870;2023-12-28T06:22:39;10.07;;;7.93;;
65463;SDS011;52063;45.110;9.870;2023-12-28T06:25:04;9.60;;;7.93;;
65463;SDS011;52063;45.110;9.870;2023-12-28T06:27:30;10.15;;;8.10;;
65463;SDS011;52063;45.110;9.870;2023-12-28T06:29:56;8.83;;;7.90;;
65463;SDS011;52063;45.110;9.870;2023-12-28T06:32:21;8.53;;;7.73;;
65463;SDS011;52063;45.110;9.870;2023-12-28T06:34:47;8.73;;;7.82;;
65463;SDS011;52063;45.110;9.870;2023-12-28T06:37:13;9.43;;;8.20;;
65463;SDS011;52063;45.110;9.870;2023-12-28T06:39:39;9.32;;;8.05;;
65463;SDS011;52063;45.110;9.870;2023-12-28T06:42:04;9.77;;;7.97;;
65463;SDS011;52063;45.110;9.870;2023-12-28T06:44:30;11.53;;;8.30;;
65463;SDS011;52063;45.110;9.870;2023-12-28T06:46:56;9.83;;;8.03;;
65463;SDS011;52063;45.110;9.870;2023-12-28T06:49:21;10.15;;;8.00;;
65463;SDS011;52063;45.110;9.870;2023-12-28T06:51:47;12.80;;;8.23;;
65463;SDS011;52063;45.110;9.870;2023-12-28T06:54:13;12.67;;;7.80;;
65463;SDS011;52063;45.110;9.870;2023-12-28T06:56:38;9.40;;;7.85;;
65463;SDS011;52063;45.110;9.870;2023-12-28T06:59:04;9.73;;;7.90;;
65463;SDS011;52063;45.110;9.870;2023-12-28T07:01:29;12.52;;;8.25;;
65463;SDS011;52063;45.110;9.870;2023-12-28T07:03:55;9.17;;;8.10;;
65463;SDS011;52063;45.110;9.870;2023-12-28T07:06:20;10.83;;;8.17;;
65463;SDS011;52063;45.110;9.870;2023-12-28T07:08:46;10.77;;;7.80;;
65463;SDS011;52063;45.110;9.870;2023-12-28T07:11:11;9.90;;;8.00;;
65463;SDS011;52063;45.110;9.870;2023-12-28T07:13:37;9.17;;;7.50;;
65463;SDS011;52063;45.110;9.870;2023-12-28T07:16:03;9.02;;;8.07;;
65463;SDS011;52063;45.110;9.870;2023-12-28T07:18:28;11.93;;;7.93;;
65463;SDS011;52063;45.110;9.870;2023-12-28T07:20:54;10.20;;;7.80;;
65463;SDS011;52063;45.110;9.870;2023-12-28T07:23:19;9.33;;;7.90;;
65463;SDS011;52063;45.110;9.870;2023-12-28T07:25:45;9.10;;;7.93;;
65463;SDS011;52063;45.110;9.870;2023-12-28T07:28:11;10.47;;;8.27;;
65463;SDS011;52063;45.110;9.870;2023-12-28T07:30:37;9.00;;;7.93;;
65463;SDS011;52063;45.110;9.870;2023-12-28T07:33:02;11.03;;;7.73;;
65463;SDS011;52063;45.110;9.870;2023-12-28T07:35:28;9.18;;;6.95;;
65463;SDS011;52063;45.110;9.870;2023-12-28T07:37:54;10.00;;;7.60;;
65463;SDS011;52063;45.110;9.870;2023-12-28T07:40:19;11.30;;;7.47;;
65463;SDS011;52063;45.110;9.870;2023-12-28T07:42:45;16.80;;;8.13;;
65463;SDS011;52063;45.110;9.870;2023-12-28T07:45:10;14.17;;;7.90;;
65463;SDS011;52063;45.110;9.870;2023-12-28T07:47:36;12.00;;;7.63;;
65463;SDS011;52063;45.110;9.870;2023-12-28T07:50:01;8.30;;;7.30;;
65463;SDS011;52063;45.110;9.870;2023-12-28T07:52:27;12.55;;;7.90;;
65463;SDS011;52063;45.110;9.870;2023-12-28T07:54:53;9.52;;;7.40;;
65463;SDS011;52063;45.110;9.870;2023-12-28T07:57:18;12.80;;;7.33;;
65463;SDS011;52063;45.110;9.870;2023-12-28T07:59:44;12.00;;;7.47;;
65463;SDS011;52063;45.110;9.870;2023-12-28T08:02:09;10.60;;;7.25;;
65463;SDS011;52063;45.110;9.870;2023-12-28T08:04:35;10.97;;;7.27;;
65463;SDS011;52063;45.110;9.870;2023-12-28T08:07:00;9.00;;;7.50;;
65463;SDS011;52063;45.110;9.870;2023-12-28T08:09:26;7.77;;;6.97;;
65463;SDS011;52063;45.110;9.870;2023-12-28T08:11:52;8.32;;;7.13;;
65463;SDS011;52063;45.110;9.870;2023-12-28T08:14:17;9.10;;;7.25;;
65463;SDS011;52063;45.110;9.870;2023-12-28T08:16:43;12.33;;;7.07;;
65463;SDS011;52063;45.110;9.870;2023-12-28T08:19:08;8.00;;;7.20;;
65463;SDS011;52063;45.110;9.870;2023-12-28T08:21:33;8.33;;;7.20;;
65463;SDS011;52063;45.110;9.870;2023-12-28T08:23:59;8.60;;;7.40;;
65463;SDS011;52063;45.110;9.870;2023-12-28T08:26:24;7.63;;;6.87;;
65463;SDS011;52063;45.110;9.870;2023-12-28T08:28:50;8.47;;;7.67;;
65463;SDS011;52063;45.110;9.870;2023-12-28T08:31:15;11.30;;;8.60;;
65463;SDS011;52063;45.110;9.870;2023-12-28T08:33:41;12.50;;;8.68;;
65463;SDS011;52063;45.110;9.870;2023-12-28T08:36:07;9.23;;;7.90;;
65463;SDS011;52063;45.110;9.870;2023-12-28T08:38:33;9.25;;;8.23;;
65463;SDS011;52063;45.110;9.870;2023-12-28T08:40:58;9.67;;;8.03;;
65463;SDS011;52063;45.110;9.870;2023-12-28T08:43:24;12.50;;;8.50;;
65463;SDS011;52063;45.110;9.870;2023-12-28T08:45:49;11.18;;;8.40;;
65463;SDS011;52063;45.110;9.870;2023-12-28T08:48:15;12.67;;;8.43;;
65463;SDS011;52063;45.110;9.870;2023-12-28T08:50:40;12.30;;;8.53;;
65463;SDS011;52063;45.110;9.870;2023-12-28T08:53:06;13.23;;;9.00;;
65463;SDS011;52063;45.110;9.870;2023-12-28T08:55:31;10.40;;;8.70;;
65463;SDS011;52063;45.110;9.870;2023-12-28T08:57:57;10.33;;;7.77;;
65463;SDS011;52063;45.110;9.870;2023-12-28T09:00:22;10.63;;;8.30;;
65463;SDS011;52063;45.110;9.870;2023-12-28T09:02:47;11.02;;;8.40;;
65463;SDS011;52063;45.110;9.870;2023-12-28T09:05:13;12.03;;;8.30;;
65463;SDS011;52063;45.110;9.870;2023-12-28T09:07:39;9.45;;;8.07;;
65463;SDS011;52063;45.110;9.870;2023-12-28T09:10:09;11.13;;;8.00;;
65463;SDS011;52063;45.110;9.870;2023-12-28T09:12:35;9.67;;;7.53;;
65463;SDS011;52063;45.110;9.870;2023-12-28T09:15:01;13.88;;;10.75;;
65463;SDS011;52063;45.110;9.870;2023-12-28T09:17:26;15.63;;;10.47;;
65463;SDS011;52063;45.110;9.870;2023-12-28T09:19:51;17.17;;;11.03;;
65463;SDS011;52063;45.110;9.870;2023-12-28T09:22:17;19.77;;;13.07;;
65463;SDS011;52063;45.110;9.870;2023-12-28T09:24:42;21.10;;;13.77;;
65463;SDS011;52063;45.110;9.870;2023-12-28T09:27:08;18.87;;;13.60;;
65463;SDS011;52063;45.110;9.870;2023-12-28T09:29:34;21.92;;;14.05;;
65463;SDS011;52063;45.110;9.870;2023-12-28T09:32:00;30.00;;;15.10;;
65463;SDS011;52063;45.110;9.870;2023-12-28T09:34:25;21.23;;;15.53;;
65463;SDS011;52063;45.110;9.870;2023-12-28T09:36:51;19.60;;;14.73;;
65463;SDS011;52063;45.110;9.870;2023-12-28T09:39:16;21.40;;;14.73;;
65463;SDS011;52063;45.110;9.870;2023-12-28T09:41:43;19.38;;;13.93;;
65463;SDS011;52063;45.110;9.870;2023-12-28T09:44:13;18.30;;;14.80;;
65463;SDS011;52063;45.110;9.870;2023-12-28T09:46:42;20.83;;;14.93;;
65463;SDS011;52063;45.110;9.870;2023-12-28T09:49:10;21.17;;;15.00;;
65463;SDS011;52063;45.110;9.870;2023-12-28T09:51:36;23.02;;;15.27;;
65463;SDS011;52063;45.110;9.870;2023-12-28T09:54:03;22.77;;;15.00;;
65463;SDS011;52063;45.110;9.870;2023-12-28T09:56:28;19.30;;;15.35;;
65463;SDS011;52063;45.110;9.870;2023-12-28T09:58:54;21.10;;;15.53;;
65463;SDS011;52063;45.110;9.870;2023-12-28T10:01:20;21.07;;;14.27;;
65463;SDS011;52063;45.110;9.870;2023-12-28T10:03:46;21.60;;;14.60;;
65463;SDS011;52063;45.110;9.870;2023-12-28T10:06:11;18.80;;;14.97;;
65463;SDS011;52063;45.110;9.870;2023-12-28T10:08:46;19.40;;;13.63;;
65463;SDS011;52063;45.110;9.870;2023-12-28T10:11:14;20.00;;;14.00;;
65463;SDS011;52063;45.110;9.870;2023-12-28T10:13:41;18.20;;;14.07;;
65463;SDS011;52063;45.110;9.870;2023-12-28T10:16:09;17.87;;;13.90;;
65463;SDS011;52063;45.110;9.870;2023-12-28T10:18:36;19.00;;;13.85;;
65463;SDS011;52063;45.110;9.870;2023-12-28T10:21:01;19.45;;;13.45;;
65463;SDS011;52063;45.110;9.870;2023-12-28T10:23:27;19.90;;;14.03;;
65463;SDS011;52063;45.110;9.870;2023-12-28T10:25:55;18.13;;;13.87;;
65463;SDS011;52063;45.110;9.870;2023-12-28T10:28:21;18.10;;;13.50;;
65463;SDS011;52063;45.110;9.870;2023-12-28T10:30:46;18.05;;;12.70;;
65463;SDS011;52063;45.110;9.870;2023-12-28T10:33:13;16.83;;;13.07;;
65463;SDS011;52063;45.110;9.870;2023-12-28T10:35:39;20.60;;;13.55;;
65463;SDS011;52063;45.110;9.870;2023-12-28T10:38:04;13.33;;;11.63;;
65463;SDS011;52063;45.110;9.870;2023-12-28T10:40:32;18.77;;;13.02;;
65463;SDS011;52063;45.110;9.870;2023-12-28T10:42:58;19.63;;;13.17;;
65463;SDS011;52063;45.110;9.870;2023-12-28T10:45:29;16.30;;;12.32;;
65463;SDS011;52063;45.110;9.870;2023-12-28T10:48:07;17.02;;;12.75;;
65463;SDS011;52063;45.110;9.870;2023-12-28T10:50:49;14.23;;;12.07;;
65463;SDS011;52063;45.110;9.870;2023-12-28T11:01:14;16.50;;;12.32;;
65463;SDS011;52063;45.110;9.870;2023-12-28T11:03:52;16.77;;;11.77;;
65463;SDS011;52063;45.110;9.870;2023-12-28T11:06:25;14.77;;;11.90;;
65463;SDS011;52063;45.110;9.870;2023-12-28T11:08:51;15.73;;;11.88;;
65463;SDS011;52063;45.110;9.870;2023-12-28T11:11:18;15.57;;;12.18;;
65463;SDS011;52063;45.110;9.870;2023-12-28T11:13:45;16.60;;;12.50;;
65463;SDS011;52063;45.110;9.870;2023-12-28T11:16:11;17.83;;;12.53;;
65463;SDS011;52063;45.110;9.870;2023-12-28T11:18:37;15.57;;;12.00;;
65463;SDS011;52063;45.110;9.870;2023-12-28T11:21:02;16.38;;;12.57;;
65463;SDS011;52063;45.110;9.870;2023-12-28T11:23:28;15.00;;;12.30;;
65463;SDS011;52063;45.110;9.870;2023-12-28T11:25:54;16.38;;;12.05;;
65463;SDS011;52063;45.110;9.870;2023-12-28T11:28:20;16.40;;;11.90;;
65463;SDS011;52063;45.110;9.870;2023-12-28T11:30:48;17.00;;;12.27;;
65463;SDS011;52063;45.110;9.870;2023-12-28T11:33:14;17.98;;;12.55;;
65463;SDS011;52063;45.110;9.870;2023-12-28T11:35:39;16.07;;;11.87;;
65463;SDS011;52063;45.110;9.870;2023-12-28T11:38:08;15.45;;;11.90;;
65463;SDS011;52063;45.110;9.870;2023-12-28T11:40:42;14.50;;;11.50;;
65463;SDS011;52063;45.110;9.870;2023-12-28T11:43:15;14.45;;;11.98;;
65463;SDS011;52063;45.110;9.870;2023-12-28T11:45:50;16.98;;;11.95;;
65463;SDS011;52063;45.110;9.870;2023-12-28T11:48:23;14.00;;;11.57;;
65463;SDS011;52063;45.110;9.870;2023-12-28T11:50:51;13.40;;;11.10;;
65463;SDS011;52063;45.110;9.870;2023-12-28T11:53:22;14.23;;;10.90;;
65463;SDS011;52063;45.110;9.870;2023-12-28T11:55:48;14.13;;;10.68;;
65463;SDS011;52063;45.110;9.870;2023-12-28T11:58:15;16.40;;;11.90;;
65463;SDS011;52063;45.110;9.870;2023-12-28T12:00:42;15.40;;;11.13;;
65463;SDS011;52063;45.110;9.870;2023-12-28T12:03:09;14.23;;;11.27;;
65463;SDS011;52063;45.110;9.870;2023-12-28T12:05:35;14.23;;;11.43;;
65463;SDS011;52063;45.110;9.870;2023-12-28T12:08:01;16.03;;;11.33;;
65463;SDS011;52063;45.110;9.870;2023-12-28T12:10:26;14.25;;;11.20;;
65463;SDS011;52063;45.110;9.870;2023-12-28T12:12:52;14.97;;;11.10;;
65463;SDS011;52063;45.110;9.870;2023-12-28T12:15:18;15.25;;;11.55;;
65463;SDS011;52063;45.110;9.870;2023-12-28T12:17:44;15.10;;;11.03;;
65463;SDS011;52063;45.110;9.870;2023-12-28T12:20:09;13.93;;;11.17;;
65463;SDS011;52063;45.110;9.870;2023-12-28T12:22:35;13.63;;;10.60;;
65463;SDS011;52063;45.110;9.870;2023-12-28T12:25:01;13.68;;;11.00;;
65463;SDS011;52063;45.110;9.870;2023-12-28T12:27:31;14.93;;;11.40;;
65463;SDS011;52063;45.110;9.870;2023-12-28T12:29:57;14.85;;;11.50;;
65463;SDS011;52063;45.110;9.870;2023-12-28T12:32:23;15.20;;;10.73;;
65463;SDS011;52063;45.110;9.870;2023-12-28T12:34:49;15.00;;;11.27;;
65463;SDS011;52063;45.110;9.870;2023-12-28T12:37:15;14.88;;;11.05;;
65463;SDS011;52063;45.110;9.870;2023-12-28T12:39:40;14.77;;;10.83;;
65463;SDS011;52063;45.110;9.870;2023-12-28T12:42:06;15.80;;;11.15;;
65463;SDS011;52063;45.110;9.870;2023-12-28T12:44:32;13.40;;;10.60;;
65463;SDS011;52063;45.110;9.870;2023-12-28T12:47:01;14.63;;;11.30;;
65463;SDS011;52063;45.110;9.870;2023-12-28T12:49:27;14.63;;;11.05;;
65463;SDS011;52063;45.110;9.870;2023-12-28T12:51:52;14.87;;;10.57;;
65463;SDS011;52063;45.110;9.870;2023-12-28T12:54:18;14.07;;;11.23;;
65463;SDS011;52063;45.110;9.870;2023-12-28T12:56:44;14.37;;;10.80;;
65463;SDS011;52063;45.110;9.870;2023-12-28T12:59:10;13.30;;;10.80;;
65463;SDS011;52063;45.110;9.870;2023-12-28T13:01:41;14.25;;;10.70;;
65463;SDS011;52063;45.110;9.870;2023-12-28T13:04:07;15.90;;;11.75;;
65463;SDS011;52063;45.110;9.870;2023-12-28T13:06:32;13.63;;;10.60;;
65463;SDS011;52063;45.110;9.870;2023-12-28T13:08:58;12.73;;;10.27;;
65463;SDS011;52063;45.110;9.870;2023-12-28T13:11:23;15.55;;;11.05;;
65463;SDS011;52063;45.110;9.870;2023-12-28T13:13:51;12.50;;;10.17;;
65463;SDS011;52063;45.110;9.870;2023-12-28T13:16:20;14.43;;;10.18;;
65463;SDS011;52063;45.110;9.870;2023-12-28T13:18:45;12.23;;;10.10;;
65463;SDS011;52063;45.110;9.870;2023-12-28T13:21:11;14.05;;;10.70;;
65463;SDS011;52063;45.110;9.870;2023-12-28T13:23:38;13.82;;;10.52;;
65463;SDS011;52063;45.110;9.870;2023-12-28T13:26:03;13.40;;;10.50;;
65463;SDS011;52063;45.110;9.870;2023-12-28T13:28:29;12.90;;;10.07;;
65463;SDS011;52063;45.110;9.870;2023-12-28T13:30:54;12.73;;;10.93;;
65463;SDS011;52063;45.110;9.870;2023-12-28T13:33:21;12.93;;;10.82;;
65463;SDS011;52063;45.110;9.870;2023-12-28T13:35:47;12.07;;;9.43;;
65463;SDS011;52063;45.110;9.870;2023-12-28T13:38:12;13.20;;;10.50;;
65463;SDS011;52063;45.110;9.870;2023-12-28T13:40:38;12.70;;;10.32;;
65463;SDS011;52063;45.110;9.870;2023-12-28T13:43:03;14.07;;;10.23;;
65463;SDS011;52063;45.110;9.870;2023-12-28T13:45:29;12.50;;;9.97;;
65463;SDS011;52063;45.110;9.870;2023-12-28T13:47:54;12.90;;;9.90;;
65463;SDS011;52063;45.110;9.870;2023-12-28T13:50:20;12.13;;;9.70;;
65463;SDS011;52063;45.110;9.870;2023-12-28T13:52:45;13.60;;;10.70;;
65463;SDS011;52063;45.110;9.870;2023-12-28T13:55:11;13.50;;;10.20;;
65463;SDS011;52063;45.110;9.870;2023-12-28T13:57:37;12.97;;;9.77;;
65463;SDS011;52063;45.110;9.870;2023-12-28T14:00:02;14.55;;;9.32;;
65463;SDS011;52063;45.110;9.870;2023-12-28T14:02:37;12.07;;;9.25;;
65463;SDS011;52063;45.110;9.870;2023-12-28T14:05:03;12.47;;;9.77;;
65463;SDS011;52063;45.110;9.870;2023-12-28T14:07:28;12.07;;;9.55;;
65463;SDS011;52063;45.110;9.870;2023-12-28T14:09:54;12.47;;;9.97;;
65463;SDS011;52063;45.110;9.870;2023-12-28T14:12:19;10.73;;;9.37;;
65463;SDS011;52063;45.110;9.870;2023-12-28T14:14:44;11.07;;;9.40;;
65463;SDS011;52063;45.110;9.870;2023-12-28T14:17:10;12.75;;;9.52;;
65463;SDS011;52063;45.110;9.870;2023-12-28T14:19:35;14.87;;;9.53;;
65463;SDS011;52063;45.110;9.870;2023-12-28T14:22:01;11.23;;;9.57;;
65463;SDS011;52063;45.110;9.870;2023-12-28T14:24:27;12.57;;;10.13;;
65463;SDS011;52063;45.110;9.870;2023-12-28T14:26:53;11.25;;;9.73;;
65463;SDS011;52063;45.110;9.870;2023-12-28T14:29:20;12.00;;;9.60;;
65463;SDS011;52063;45.110;9.870;2023-12-28T14:31:46;11.45;;;9.23;;
65463;SDS011;52063;45.110;9.870;2023-12-28T14:34:12;10.48;;;9.02;;